No particular awareness of the weather is required.    There are no Weather-warnings


Meteo18 Weather Cam more information Meteo18 Weather Cam


Thunder radar more information blitzortung!


Rain radar more information rain snow radar


Visit our other weather sites:

Template documentation
and downloads

And another site



Weather Underground History page Text

Daily Summary for June 13, 2017 Units:  English    Metric   Both
« Previous Day
Next Day »
Daily Weekly Monthly Yearly Custom
  High: Low: Average:
Temperature: 78.8 °F 54.3 °F 66.4 °F
Dew Point: 59.2 °F 49.8 °F 54.1 °F
Humidity: 85 % 48 % 66 %
Wind Speed: 13 mph 0 mph 4.7 mph
Wind Gust: 17 mph - -
Wind:- - East
Pressure: 30.1 in 30 in -
Precipitation: 0 in    
Historical Graphs
 
 
Tabular Data for June 13, 2017
Time Temperature Dew Point Pressure Wind Wind Speed Wind Gust Humidity Rainfall Rate (Hourly)
00:02 60.6 °F 52 °F 30.1 in NNW 3 mph 6 mph 73 % 0 in
00:07 60.4 °F 51.8 °F 30.1 in NNW 1 mph 6 mph 73 % 0 in
00:12 60.1 °F 51.8 °F 30.1 in NNW 2 mph 6 mph 74 % 0 in
00:17 60.1 °F 51.8 °F 30.1 in Calm   6 mph 74 % 0 in
00:22 59.9 °F 51.6 °F 30.1 in NNW 3 mph 4 mph 74 % 0 in
00:32 59.5 °F 51.6 °F 30.1 in NNW 1 mph 3 mph 75 % 0 in
00:37 59.5 °F 51.6 °F 30.1 in Calm   4 mph 75 % 0 in
00:42 59.2 °F 51.3 °F 30.1 in North 1 mph 4 mph 75 % 0 in
00:52 59 °F 51.4 °F 30.1 in NNW 2 mph 4 mph 76 % 0 in
00:57 59.2 °F 51.3 °F 30.1 in NNW 3 mph 5 mph 75 % 0 in
01:02 59.2 °F 51.3 °F 30.1 in NNE 3 mph 5 mph 75 % 0 in
01:12 59.2 °F 51.3 °F 30.1 in NNW 3 mph 5 mph 75 % 0 in
01:17 59 °F 51.1 °F 30.1 in NNW 2 mph 5 mph 75 % 0 in
01:22 58.8 °F 50.9 °F 30.1 in Calm   5 mph 75 % 0 in
01:32 58.3 °F 50.7 °F 30.1 in North 2 mph 5 mph 76 % 0 in
01:42 58.1 °F 50.9 °F 30.1 in ENE 3 mph 4 mph 77 % 0 in
01:47 57.7 °F 50.5 °F 30.1 in NNW 2 mph 4 mph 77 % 0 in
01:52 57.4 °F 50.5 °F 30.1 in North 2 mph 4 mph 78 % 0 in
01:57 57 °F 50.5 °F 30.1 in NNW 1 mph 4 mph 79 % 0 in
02:02 57.2 °F 50.4 °F 30.1 in North 2 mph 5 mph 78 % 0 in
02:07 57 °F 50.2 °F 30.1 in NE 3 mph 5 mph 78 % 0 in
02:12 56.7 °F 50.2 °F 30.1 in NNW 2 mph 5 mph 79 % 0 in
02:17 56.8 °F 50.4 °F 30.1 in NW 4 mph 4 mph 79 % 0 in
02:22 57 °F 50.5 °F 30.1 in NNE 1 mph 5 mph 79 % 0 in
02:27 57 °F 50.2 °F 30.1 in NE 2 mph 7 mph 78 % 0 in
02:32 57.2 °F 50.4 °F 30.1 in NNW 3 mph 8 mph 78 % 0 in
02:37 57 °F 50.5 °F 30.1 in NE 2 mph 8 mph 79 % 0 in
02:42 57 °F 50.5 °F 30.1 in NNE 2 mph 8 mph 79 % 0 in
02:47 57 °F 50.5 °F 30.1 in NW 2 mph 8 mph 79 % 0 in
02:52 56.8 °F 50.7 °F 30.1 in NNE 2 mph 6 mph 80 % 0 in
02:57 56.7 °F 50.5 °F 30.1 in NNE 2 mph 6 mph 80 % 0 in
03:02 56.7 °F 50.5 °F 30.1 in North 3 mph 6 mph 80 % 0 in
03:12 56.7 °F 50.5 °F 30.1 in NNW 4 mph 8 mph 80 % 0 in
03:17 56.7 °F 50.9 °F 30.1 in NNW 2 mph 8 mph 81 % 0 in
03:22 56.5 °F 50.7 °F 30.1 in NNW 1 mph 8 mph 81 % 0 in
03:32 56.1 °F 50.7 °F 30.1 in NE 1 mph 8 mph 82 % 0 in
03:42 55.8 °F 50.7 °F 30.1 in NE 2 mph 6 mph 83 % 0 in
03:47 55.8 °F 50.7 °F 30.1 in NNW 1 mph 6 mph 83 % 0 in
03:52 55.9 °F 50.5 °F 30.1 in NE 3 mph 6 mph 82 % 0 in
04:02 55.8 °F 50.7 °F 30.1 in North 2 mph 6 mph 83 % 0 in
04:07 55.8 °F 50.7 °F 30.1 in Calm   6 mph 83 % 0 in
04:12 55.8 °F 50.7 °F 30.1 in ENE 3 mph 6 mph 83 % 0 in
04:17 55.6 °F 50.5 °F 30.1 in NNW 2 mph 5 mph 83 % 0 in
04:22 55.6 °F 50.5 °F 30.1 in North 2 mph 5 mph 83 % 0 in
04:27 55.6 °F 50.5 °F 30.1 in North 3 mph 6 mph 83 % 0 in
04:32 55.4 °F 50.4 °F 30.1 in NNE 3 mph 6 mph 83 % 0 in
04:37 55.2 °F 50.2 °F 30.1 in North 5 mph 6 mph 83 % 0 in
04:42 55.2 °F 50.5 °F 30.1 in NNW 3 mph 6 mph 84 % 0 in
04:47 55.2 °F 50.5 °F 30.1 in Calm   6 mph 84 % 0 in
04:52 55.2 °F 50.5 °F 30.1 in Calm   6 mph 84 % 0 in
04:57 55 °F 50.4 °F 30.1 in NE 1 mph 6 mph 84 % 0 in
05:02 55 °F 50.4 °F 30.1 in North 4 mph 6 mph 84 % 0 in
05:07 55 °F 50.4 °F 30.1 in NNE 5 mph 5 mph 84 % 0 in
05:17 54.9 °F 50.2 °F 30.1 in NNE 1 mph 5 mph 84 % 0 in
05:22 54.9 °F 50.2 °F 30.1 in Calm   5 mph 84 % 0 in
05:27 54.9 °F 50.4 °F 30.1 in NNW 1 mph 6 mph 85 % 0 in
05:32 54.7 °F 50.2 °F 30.1 in NNW 3 mph 6 mph 85 % 0 in
05:42 54.7 °F 50.2 °F 30.1 in North 3 mph 6 mph 85 % 0 in
05:52 54.7 °F 50.2 °F 30.1 in NE 5 mph 6 mph 85 % 0 in
05:57 54.7 °F 50.2 °F 30.1 in NNE 2 mph 6 mph 85 % 0 in
06:02 54.7 °F 50.2 °F 30.1 in North 3 mph 7 mph 85 % 0 in
06:12 54.7 °F 50.2 °F 30.1 in ENE 3 mph 7 mph 85 % 0 in
06:17 54.5 °F 50 °F 30.1 in NNE 2 mph 7 mph 85 % 0 in
06:22 54.3 °F 49.8 °F 30.1 in NNE 6 mph 7 mph 85 % 0 in
06:32 54.9 °F 50.4 °F 30.1 in NE 3 mph 8 mph 85 % 0 in
06:37 55 °F 50.5 °F 30.1 in NE 4 mph 8 mph 85 % 0 in
06:42 55.6 °F 50.9 °F 30.1 in NW 1 mph 8 mph 84 % 0 in
06:47 55.9 °F 50.9 °F 30.1 in NE 3 mph 8 mph 83 % 0 in
06:52 56.3 °F 50.9 °F 30.1 in NE 7 mph 8 mph 82 % 0 in
06:57 56.7 °F 50.9 °F 30.1 in North 2 mph 8 mph 81 % 0 in
07:02 56.7 °F 50.9 °F 30.1 in North 4 mph 12 mph 81 % 0 in
07:12 57 °F 50.9 °F 30.1 in NNE 7 mph 12 mph 80 % 0 in
07:17 57.2 °F 51.1 °F 30.1 in NNE 5 mph 10 mph 80 % 0 in
07:27 57.7 °F 51.3 °F 30.1 in NE 5 mph 12 mph 79 % 0 in
07:32 57.7 °F 51.3 °F 30.1 in NNE 4 mph 12 mph 79 % 0 in
07:42 57.6 °F 51.1 °F 30.1 in NE 7 mph 12 mph 79 % 0 in
07:52 57.6 °F 51.1 °F 30.1 in NE 6 mph 12 mph 79 % 0 in
08:02 57.6 °F 51.4 °F 30.1 in NE 4 mph 12 mph 80 % 0 in
08:12 57.7 °F 51.6 °F 30.1 in NNE 8 mph 12 mph 80 % 0 in
08:17 57.9 °F 51.8 °F 30.1 in NNE 8 mph 12 mph 80 % 0 in
08:22 57.9 °F 51.4 °F 30.1 in NE 7 mph 12 mph 79 % 0 in
08:27 58.3 °F 51.8 °F 30.1 in East 1 mph 12 mph 79 % 0 in
08:32 58.5 °F 52 °F 30.1 in NE 3 mph 12 mph 79 % 0 in
08:37 58.6 °F 52.2 °F 30.1 in NNE 6 mph 12 mph 79 % 0 in
08:47 59.2 °F 52.3 °F 30.1 in NNE 5 mph 11 mph 78 % 0 in
08:52 59.4 °F 52.5 °F 30.1 in Calm   11 mph 78 % 0 in
09:02 60.6 °F 53.1 °F 30.1 in NE 10 mph 10 mph 76 % 0 in
09:12 61.3 °F 53.1 °F 30.1 in NE 7 mph 11 mph 74 % 0 in
09:17 62.2 °F 53.8 °F 30.1 in NNE 9 mph 12 mph 74 % 0 in
09:22 62.8 °F 53.6 °F 30.1 in NNE 7 mph 12 mph 72 % 0 in
09:27 62.8 °F 52.9 °F 30.1 in NE 9 mph 12 mph 70 % 0 in
09:32 63 °F 53.8 °F 30.1 in ENE 3 mph 14 mph 72 % 0 in
09:37 63.5 °F 54 °F 30.1 in NE 3 mph 14 mph 71 % 0 in
09:42 63.9 °F 54 °F 30.1 in NE 4 mph 14 mph 70 % 0 in
09:52 64.2 °F 54.3 °F 30.1 in NNE 8 mph 14 mph 70 % 0 in
09:57 64.2 °F 53.4 °F 30.1 in East 7 mph 14 mph 68 % 0 in
10:02 64.6 °F 54.5 °F 30.1 in NNE 2 mph 14 mph 70 % 0 in
10:12 64.6 °F 54.1 °F 30.1 in ENE 6 mph 13 mph 69 % 0 in
10:17 64.2 °F 53.8 °F 30.1 in NE 9 mph 13 mph 69 % 0 in
10:22 64.4 °F 54.3 °F 30.1 in NE 7 mph 13 mph 70 % 0 in
10:32 65.1 °F 54.7 °F 30.1 in NE 7 mph 13 mph 69 % 0 in
10:42 66 °F 54.3 °F 30.1 in NNE 10 mph 13 mph 66 % 0 in
10:52 66 °F 54 °F 30.1 in NE 5 mph 14 mph 65 % 0 in
10:57 66 °F 53.4 °F 30.1 in NE 11 mph 14 mph 64 % 0 in
11:02 65.8 °F 53.2 °F 30.1 in NE 10 mph 16 mph 64 % 0 in
11:07 65.8 °F 53.8 °F 30.1 in ENE 6 mph 16 mph 65 % 0 in
11:12 66 °F 54 °F 30.1 in NE 12 mph 16 mph 65 % 0 in
11:17 66.7 °F 54.1 °F 30.1 in NNE 9 mph 15 mph 64 % 0 in
11:22 67.8 °F 54.7 °F 30.1 in ENE 10 mph 14 mph 63 % 0 in
11:32 68.5 °F 54.5 °F 30.1 in NE 5 mph 14 mph 61 % 0 in
11:42 69.4 °F 54.5 °F 30.1 in NE 11 mph 17 mph 59 % 0 in
11:47 69.3 °F 54.3 °F 30.1 in ENE 6 mph 17 mph 59 % 0 in
11:52 69.4 °F 53.6 °F 30.1 in NE 8 mph 15 mph 57 % 0 in
11:57 69.4 °F 54 °F 30.1 in ENE 7 mph 16 mph 58 % 0 in
12:02 69.8 °F 54.3 °F 30.1 in ENE 3 mph 16 mph 58 % 0 in
12:12 70.2 °F 54.1 °F 30.1 in NE 8 mph 14 mph 57 % 0 in
12:17 70.3 °F 54.9 °F 30.1 in NE 7 mph 14 mph 58 % 0 in
12:22 70.7 °F 53.8 °F 30.1 in NE 10 mph 13 mph 55 % 0 in
12:27 71.1 °F 55 °F 30.1 in NNE 10 mph 13 mph 57 % 0 in
12:32 71.1 °F 54.1 °F 30.1 in ENE 8 mph 16 mph 55 % 0 in
12:42 71.4 °F 55.4 °F 30.1 in NNE 13 mph 15 mph 57 % 0 in
12:47 71.6 °F 54.5 °F 30.1 in NNE 13 mph 15 mph 55 % 0 in
12:52 71.6 °F 54.5 °F 30.1 in NE 3 mph 15 mph 55 % 0 in
12:57 71.6 °F 55 °F 30.1 in NE 6 mph 15 mph 56 % 0 in
13:02 71.6 °F 54.5 °F 30.1 in ENE 6 mph 15 mph 55 % 0 in
13:07 72.7 °F 56.1 °F 30.1 in ENE 6 mph 12 mph 56 % 0 in
13:12 72.9 °F 54.7 °F 30.1 in Calm   12 mph 53 % 0 in
13:17 73 °F 55.4 °F 30.1 in NE 8 mph 12 mph 54 % 0 in
13:22 73.2 °F 55.6 °F 30.1 in ENE 8 mph 12 mph 54 % 0 in
13:32 72.9 °F 55.2 °F 30.1 in ENE 7 mph 15 mph 54 % 0 in
13:37 72.9 °F 55.8 °F 30.1 in NE 5 mph 15 mph 55 % 0 in
13:42 73 °F 54.9 °F 30.1 in NNE 6 mph 15 mph 53 % 0 in
13:52 73 °F 54.9 °F 30.1 in NNE 6 mph 15 mph 53 % 0 in
13:57 73 °F 55.4 °F 30.1 in North 9 mph 15 mph 54 % 0 in
14:02 73.6 °F 55.9 °F 30.1 in ENE 7 mph 15 mph 54 % 0 in
14:07 73.8 °F 56.1 °F 30.1 in North 5 mph 14 mph 54 % 0 in
14:12 74.1 °F 55.9 °F 30.1 in NE 8 mph 12 mph 53 % 0 in
14:17 74.1 °F 55.4 °F 30.1 in NE 11 mph 12 mph 52 % 0 in
14:22 74.7 °F 56.5 °F 30.1 in NNE 6 mph 13 mph 53 % 0 in
14:32 75 °F 55 °F 30.1 in ENE 5 mph 11 mph 50 % 0 in
14:42 75.6 °F 56.7 °F 30.1 in NE 6 mph 10 mph 52 % 0 in
14:52 75.9 °F 56.5 °F 30.1 in NE 4 mph 12 mph 51 % 0 in
14:57 75.9 °F 56.5 °F 30.1 in ENE 5 mph 12 mph 51 % 0 in
15:02 75.9 °F 55.9 °F 30.1 in NE 4 mph 12 mph 50 % 0 in
15:12 75.7 °F 55.2 °F 30.1 in Calm   11 mph 49 % 0 in
15:22 75.7 °F 55.8 °F 30.1 in East 2 mph 11 mph 50 % 0 in
15:32 75.7 °F 56.3 °F 30.1 in ENE 8 mph 12 mph 51 % 0 in
15:37 75.7 °F 55.8 °F 30.1 in ENE 6 mph 12 mph 50 % 0 in
15:42 75.9 °F 57 °F 30.1 in ENE 7 mph 12 mph 52 % 0 in
15:52 75.7 °F 56.8 °F 30.1 in NNE 4 mph 11 mph 52 % 0 in
15:57 76.3 °F 56.8 °F 30.1 in East 6 mph 12 mph 51 % 0 in
16:02 76.8 °F 57.4 °F 30.1 in NE 6 mph 12 mph 51 % 0 in
16:07 76.6 °F 57.2 °F 30.1 in NE 2 mph 12 mph 51 % 0 in
16:12 76.8 °F 56.8 °F 30 in NE 5 mph 11 mph 50 % 0 in
16:17 76.8 °F 56.3 °F 30.1 in NNW 6 mph 11 mph 49 % 0 in
16:22 76.6 °F 56.7 °F 30.1 in NE 5 mph 10 mph 50 % 0 in
16:32 76.5 °F 57 °F 30 in ENE 2 mph 10 mph 51 % 0 in
16:37 77.2 °F 57 °F 30 in NE 2 mph 10 mph 50 % 0 in
16:42 77.2 °F 56.5 °F 30 in ENE 6 mph 10 mph 49 % 0 in
16:52 77.2 °F 57 °F 30 in NE 3 mph 9 mph 50 % 0 in
16:57 77 °F 57.6 °F 30 in ENE 6 mph 9 mph 51 % 0 in
17:02 77.2 °F 56.5 °F 30 in ENE 3 mph 9 mph 49 % 0 in
17:07 77 °F 57 °F 30 in NE 7 mph 9 mph 50 % 0 in
17:12 76.8 °F 57.4 °F 30 in NE 2 mph 9 mph 51 % 0 in
17:17 77.2 °F 56.5 °F 30 in ENE 5 mph 8 mph 49 % 0 in
17:22 76.8 °F 57.4 °F 30 in NE 2 mph 10 mph 51 % 0 in
17:27 77.4 °F 57.2 °F 30 in NNE 3 mph 10 mph 50 % 0 in
17:32 77.5 °F 57.4 °F 30 in North 2 mph 10 mph 50 % 0 in
17:37 77.7 °F 56.5 °F 30 in ENE 3 mph 9 mph 48 % 0 in
17:42 77.5 °F 56.3 °F 30 in NE 6 mph 8 mph 48 % 0 in
17:47 77.7 °F 57.6 °F 30 in ENE 4 mph 9 mph 50 % 0 in
17:52 77.7 °F 57 °F 30 in ENE 4 mph 10 mph 49 % 0 in
17:57 78.1 °F 57.9 °F 30 in NE 5 mph 10 mph 50 % 0 in
18:02 77.7 °F 57.6 °F 30 in NNE 3 mph 10 mph 50 % 0 in
18:07 77.7 °F 57 °F 30 in East 3 mph 9 mph 49 % 0 in
18:12 77.9 °F 57.7 °F 30 in NE 1 mph 9 mph 50 % 0 in
18:17 78.4 °F 57.7 °F 30 in NNE 4 mph 9 mph 49 % 0 in
18:27 78.8 °F 57.4 °F 30 in NE 6 mph 9 mph 48 % 0 in
18:32 78.4 °F 57.7 °F 30 in NNE 5 mph 9 mph 49 % 0 in
18:37 78.3 °F 57.6 °F 30 in North 3 mph 16 mph 49 % 0 in
18:42 78.1 °F 57.4 °F 30 in NE 3 mph 16 mph 49 % 0 in
18:47 77.9 °F 57.2 °F 30 in NNE 7 mph 13 mph 49 % 0 in
18:52 78.1 °F 58.5 °F 30 in NNE 6 mph 13 mph 51 % 0 in
19:02 77.4 °F 58.3 °F 30 in North 4 mph 13 mph 52 % 0 in
19:12 77.2 °F 59.2 °F 30 in NE 5 mph 12 mph 54 % 0 in
19:17 77 °F 59 °F 30 in ENE 4 mph 12 mph 54 % 0 in
19:22 77.2 °F 59.2 °F 30 in NNE 8 mph 11 mph 54 % 0 in
19:32 76.6 °F 58.8 °F 30 in NE 10 mph 13 mph 54 % 0 in
19:37 76.5 °F 58.6 °F 30 in NE 6 mph 13 mph 54 % 0 in
19:42 76.6 °F 58.8 °F 30 in ENE 5 mph 13 mph 54 % 0 in
19:47 76.3 °F 58.5 °F 30 in NE 9 mph 13 mph 54 % 0 in
19:52 75.9 °F 58.6 °F 30 in ENE 4 mph 12 mph 55 % 0 in
19:57 75.6 °F 58.3 °F 30 in North 8 mph 12 mph 55 % 0 in
20:02 75.2 °F 58.5 °F 30 in NE 5 mph 12 mph 56 % 0 in
20:07 74.8 °F 58.6 °F 30 in NNW 4 mph 12 mph 57 % 0 in
20:12 74.5 °F 58.8 °F 30 in NNE 4 mph 12 mph 58 % 0 in
20:17 73.9 °F 58.6 °F 30 in North 3 mph 9 mph 59 % 0 in
20:22 73.6 °F 57.9 °F 30.1 in NNW 5 mph 7 mph 58 % 0 in
20:32 72.9 °F 57.2 °F 30.1 in NNE 4 mph 8 mph 58 % 0 in
20:37 72.7 °F 57.6 °F 30.1 in NNW 5 mph 8 mph 59 % 0 in
20:42 72.3 °F 57.2 °F 30.1 in NNW 5 mph 8 mph 59 % 0 in
20:47 72.1 °F 57 °F 30.1 in NNW 5 mph 9 mph 59 % 0 in
20:52 72 °F 56.8 °F 30.1 in NNE 5 mph 9 mph 59 % 0 in
20:57 71.4 °F 56.3 °F 30 in North 8 mph 10 mph 59 % 0 in
21:02 71.2 °F 56.1 °F 30 in NNE 4 mph 10 mph 59 % 0 in
21:12 70.9 °F 55.4 °F 30 in NNE 5 mph 14 mph 58 % 0 in
21:17 70.7 °F 55.2 °F 30 in NNE 8 mph 14 mph 58 % 0 in
21:22 70.7 °F 54.7 °F 30 in NE 13 mph 14 mph 57 % 0 in
21:32 70.7 °F 54.3 °F 30 in ENE 7 mph 14 mph 56 % 0 in
21:37 70.7 °F 54.3 °F 30 in NNE 11 mph 16 mph 56 % 0 in
21:42 70.5 °F 54.1 °F 30 in NNE 6 mph 16 mph 56 % 0 in
21:52 70 °F 54.5 °F 30 in WNW 4 mph 14 mph 58 % 0 in
21:57 69.8 °F 55.2 °F 30 in NNE 2 mph 10 mph 60 % 0 in
22:02 69.4 °F 55.9 °F 30 in NNE 8 mph 12 mph 62 % 0 in
22:07 69.3 °F 55.8 °F 30 in North 6 mph 14 mph 62 % 0 in
22:12 69.3 °F 55.8 °F 30 in North 3 mph 14 mph 62 % 0 in
22:17 69.1 °F 55.9 °F 30 in NE 13 mph 14 mph 63 % 0 in
22:22 69.1 °F 55.9 °F 30 in NE 10 mph 15 mph 63 % 0 in
22:32 68.5 °F 55.9 °F 30.1 in NNE 5 mph 15 mph 64 % 0 in
22:37 68.5 °F 55.9 °F 30.1 in ENE 5 mph 13 mph 64 % 0 in
22:42 68.4 °F 56.1 °F 30 in NE 7 mph 13 mph 65 % 0 in
22:52 68 °F 56.3 °F 30.1 in NNE 5 mph 16 mph 66 % 0 in
22:57 67.8 °F 56.5 °F 30.1 in NE 3 mph 16 mph 67 % 0 in
23:02 67.6 °F 56.7 °F 30.1 in NE 8 mph 16 mph 68 % 0 in
23:12 67.5 °F 57 °F 30.1 in North 4 mph 9 mph 69 % 0 in
23:22 67.1 °F 56.7 °F 30.1 in NNE 1 mph 9 mph 69 % 0 in
23:27 66.9 °F 56.8 °F 30.1 in Calm   9 mph 70 % 0 in
23:32 66.9 °F 57.2 °F 30.1 in Calm   9 mph 71 % 0 in
23:37 66.6 °F 57.2 °F 30.1 in Calm   4 mph 72 % 0 in
23:42 66.2 °F 57.7 °F 30.1 in NE 2 mph 4 mph 74 % 0 in
23:47 65.8 °F 57 °F 30.1 in ENE 3 mph 7 mph 73 % 0 in
23:52 65.7 °F 57.9 °F 30.1 in NE 3 mph 11 mph 76 % 0 in
Meteo18
Compliments of Weather Underground - 4 mb

Script developed by  Jim McMurry - jmcmurry@mwt.net Adapted for the template by  Wim van der Kuil - Leuven-Template.eu

You find our weather info also at:

European Weather Network

Weather Underground

Equipment we use:

Weather-station
Davis Vue

Weather-program
Meteohub

Weather-server
Raspberry PI 2 B+

Provider
1 and 1

Davis Vue

Meteohub

Raspberry PI 2 B+

1 and 1